createdAt,value
2016-06-18T00:00:08.708Z,15.41
2016-06-18T00:01:08.694Z,15.48
2016-06-18T00:02:08.668Z,15.42
2016-06-18T00:03:08.670Z,15.46
2016-06-18T00:04:08.627Z,15.43
2016-06-18T00:05:08.615Z,15.43
2016-06-18T00:06:07.978Z,15.41
2016-06-18T00:07:08.575Z,15.36
2016-06-18T00:08:08.532Z,15.3
2016-06-18T00:09:08.535Z,15.28
2016-06-18T00:10:08.523Z,15.33
2016-06-18T00:11:08.480Z,15.3
2016-06-18T00:12:08.468Z,15.28
2016-06-18T00:13:08.440Z,15.26
2016-06-18T00:14:07.818Z,15.27
2016-06-18T00:15:08.400Z,15.15
2016-06-18T00:16:08.387Z,15.15
2016-06-18T00:17:08.360Z,15.2
2016-06-18T00:18:08.331Z,15.19
2016-06-18T00:19:08.320Z,15.17
2016-06-18T00:20:08.323Z,15.17
2016-06-18T00:21:08.280Z,15.13
2016-06-18T00:22:08.253Z,15.12
2016-06-18T00:23:07.631Z,15.15
2016-06-18T00:24:08.213Z,15.17
2016-06-18T00:25:08.185Z,15.17
2016-06-18T00:26:08.172Z,15.09
2016-06-18T00:27:08.145Z,15.15
2016-06-18T00:28:08.116Z,15.11
2016-06-18T00:29:08.105Z,15.19
2016-06-18T00:30:08.123Z,15.11
2016-06-18T00:31:08.080Z,15.15
2016-06-18T00:32:08.038Z,15.09
2016-06-18T00:33:08.024Z,15.08
2016-06-18T00:34:07.403Z,15.12
2016-06-18T00:35:07.984Z,15.09
2016-06-18T00:36:07.973Z,15.11
2016-06-18T00:37:07.961Z,15.06
2016-06-18T00:38:07.917Z,15.01
2016-06-18T00:39:07.920Z,15.08
2016-06-18T00:40:07.893Z,15.02
2016-06-18T00:41:07.865Z,14.99
2016-06-18T00:42:07.837Z,14.98
2016-06-18T00:43:07.216Z,15.01
2016-06-18T00:44:07.782Z,15.02
2016-06-18T00:45:07.769Z,15.01
2016-06-18T00:46:07.757Z,14.94
2016-06-18T00:47:07.745Z,15.05
2016-06-18T00:48:07.717Z,14.94
2016-06-18T00:49:07.689Z,14.98
2016-06-18T00:50:07.661Z,14.98
2016-06-18T00:51:07.664Z,14.94
2016-06-18T00:52:07.622Z,14.95
2016-06-18T00:53:07.610Z,14.86
2016-06-18T00:54:07.597Z,14.91
2016-06-18T00:55:07.570Z,14.86
2016-06-18T00:56:07.542Z,14.84
2016-06-18T00:57:07.530Z,14.88
2016-06-18T00:58:07.502Z,14.84
2016-06-18T00:59:07.490Z,14.75
2016-06-18T01:00:07.462Z,14.74
2016-06-18T01:01:07.435Z,14.69
2016-06-18T01:02:07.406Z,14.71
2016-06-18T01:03:07.394Z,14.74
2016-06-18T01:04:06.773Z,14.62
2016-06-18T01:05:07.369Z,14.61
2016-06-18T01:06:07.327Z,14.57
2016-06-18T01:07:07.314Z,14.53
2016-06-18T01:08:07.287Z,14.57
2016-06-18T01:09:07.258Z,14.61
2016-06-18T01:10:07.246Z,14.5
2016-06-18T01:11:07.234Z,14.53
2016-06-18T01:12:07.191Z,14.46
2016-06-18T01:13:07.179Z,14.46
2016-06-18T01:14:07.167Z,14.46
2016-06-18T01:15:07.154Z,14.42
2016-06-18T01:16:07.126Z,14.34
2016-06-18T01:17:07.099Z,14.37
2016-06-18T01:18:07.086Z,14.29
2016-06-18T01:19:07.043Z,14.27
2016-06-18T01:20:07.031Z,14.37
2016-06-18T01:21:07.019Z,14.35
2016-06-18T01:22:07.038Z,14.37
2016-06-18T01:23:06.978Z,14.25
2016-06-18T01:24:06.952Z,14.29
2016-06-18T01:25:06.923Z,14.25
2016-06-18T01:26:06.911Z,14.28
2016-06-18T01:27:06.884Z,14.31
2016-06-18T01:28:06.871Z,14.24
2016-06-18T01:29:06.843Z,14.25
2016-06-18T01:30:06.831Z,14.29
2016-06-18T01:31:06.804Z,14.29
2016-06-18T01:32:06.792Z,14.16
2016-06-18T01:33:06.764Z,14.16
2016-06-18T01:34:06.752Z,14.21
2016-06-18T01:35:06.708Z,14.12
2016-06-18T01:36:06.726Z,14.04
2016-06-18T01:37:06.684Z,14.14
2016-06-18T01:38:06.656Z,14.09
2016-06-18T01:39:06.628Z,14.16
2016-06-18T01:40:06.616Z,14.12
2016-06-18T01:41:06.588Z,14.04
2016-06-18T01:42:06.561Z,14.06
2016-06-18T01:43:06.548Z,13.99
2016-06-18T01:44:06.520Z,14.06
2016-06-18T01:45:06.508Z,13.95
2016-06-18T01:46:06.481Z,14.01
2016-06-18T01:47:06.469Z,14.02
2016-06-18T01:48:06.440Z,14.01
2016-06-18T01:49:06.413Z,13.92
2016-06-18T01:50:06.401Z,13.92
2016-06-18T01:51:06.388Z,14.01
2016-06-18T01:52:06.361Z,14.01
2016-06-18T01:53:06.333Z,13.96
2016-06-18T01:54:05.714Z,13.96
2016-06-18T01:55:06.298Z,13.96
2016-06-18T01:56:06.273Z,13.91
2016-06-18T01:57:06.265Z,13.91
2016-06-18T01:58:06.240Z,13.92
2016-06-18T01:59:06.230Z,13.94
2016-06-18T02:00:06.202Z,13.89
2016-06-18T02:01:06.192Z,13.92
2016-06-18T02:02:06.166Z,13.92
2016-06-18T02:03:06.138Z,13.81
2016-06-18T02:04:06.111Z,13.8
2016-06-18T02:05:06.115Z,13.8
2016-06-18T02:06:06.072Z,13.81
2016-06-18T02:07:06.061Z,13.83
2016-06-18T02:08:06.033Z,13.8
2016-06-18T02:09:06.006Z,13.83
2016-06-18T02:10:05.400Z,13.8
2016-06-18T02:11:05.966Z,13.83
2016-06-18T02:12:05.955Z,13.81
2016-06-18T02:13:05.927Z,13.83
2016-06-18T02:14:05.899Z,13.81
2016-06-18T02:15:05.887Z,13.79
2016-06-18T02:16:05.875Z,13.84
2016-06-18T02:17:05.848Z,13.98
2016-06-18T02:18:05.835Z,13.91
2016-06-18T02:19:05.791Z,13.89
2016-06-18T02:20:05.779Z,13.91
2016-06-18T02:21:05.751Z,13.94
2016-06-18T02:22:05.740Z,13.94
2016-06-18T02:23:05.727Z,13.98
2016-06-18T02:24:05.684Z,13.96
2016-06-18T02:25:05.687Z,14.02
2016-06-18T02:26:05.660Z,14.06
2016-06-18T02:27:05.616Z,14.12
2016-06-18T02:28:05.603Z,14.1
2016-06-18T02:29:05.592Z,14.12
2016-06-18T02:30:04.971Z,14.14
2016-06-18T02:31:05.536Z,14.04
2016-06-18T02:32:05.540Z,14.14
2016-06-18T02:33:05.496Z,14.25
2016-06-18T02:34:05.484Z,14.19
2016-06-18T02:35:05.488Z,14.2
2016-06-18T02:36:05.445Z,14.31
2016-06-18T02:37:05.416Z,14.25
2016-06-18T02:38:05.388Z,14.31
2016-06-18T02:39:05.377Z,14.34
2016-06-18T02:40:05.349Z,14.38
2016-06-18T02:41:05.320Z,14.32
2016-06-18T02:42:05.309Z,14.35
2016-06-18T02:43:04.687Z,14.39
2016-06-18T02:44:05.269Z,14.49
2016-06-18T02:45:05.241Z,14.46
2016-06-18T02:46:05.212Z,14.46
2016-06-18T02:47:05.185Z,14.52
2016-06-18T02:48:05.173Z,14.5
2016-06-18T02:49:05.162Z,14.53
2016-06-18T02:50:05.132Z,14.6
2016-06-18T02:51:05.105Z,14.6
2016-06-18T02:52:05.094Z,14.64
2016-06-18T02:53:05.081Z,14.61
2016-06-18T02:54:05.053Z,14.65
2016-06-18T02:55:05.041Z,14.64
2016-06-18T02:56:05.013Z,14.64
2016-06-18T02:57:04.986Z,14.65
2016-06-18T02:58:04.958Z,14.69
2016-06-18T02:59:04.946Z,14.71
2016-06-18T03:00:04.933Z,14.65
2016-06-18T03:01:04.906Z,14.68
2016-06-18T03:02:04.878Z,14.71
2016-06-18T03:03:04.850Z,14.74
2016-06-18T03:04:04.822Z,14.69
2016-06-18T03:05:04.809Z,14.75
2016-06-18T03:06:04.798Z,14.67
2016-06-18T03:07:04.771Z,14.71
2016-06-18T03:08:04.742Z,14.68
2016-06-18T03:09:04.120Z,14.72
2016-06-18T03:10:04.109Z,14.75
2016-06-18T03:11:04.674Z,14.9
2016-06-18T03:12:04.678Z,14.87
2016-06-18T03:13:04.650Z,14.75
2016-06-18T03:14:04.622Z,14.86
2016-06-18T03:15:04.594Z,14.84
2016-06-18T03:16:04.583Z,14.84
2016-06-18T03:17:04.555Z,14.87
2016-06-18T03:18:04.543Z,14.8
2016-06-18T03:19:04.515Z,14.83
2016-06-18T03:20:04.502Z,14.83
2016-06-18T03:21:04.475Z,14.98
2016-06-18T03:22:04.448Z,14.93
2016-06-18T03:23:04.434Z,14.93
2016-06-18T03:24:04.407Z,14.9
2016-06-18T03:25:04.395Z,14.9
2016-06-18T03:26:04.382Z,14.88
2016-06-18T03:27:04.354Z,14.78
2016-06-18T03:28:04.327Z,14.86
2016-06-18T03:29:04.299Z,14.91
2016-06-18T03:30:04.303Z,14.83
2016-06-18T03:31:04.260Z,14.88
2016-06-18T03:32:04.231Z,14.91
2016-06-18T03:33:04.219Z,14.88
2016-06-18T03:34:04.207Z,14.87
2016-06-18T03:35:04.180Z,14.9
2016-06-18T03:36:04.166Z,14.93
2016-06-18T03:37:04.139Z,14.87
2016-06-18T03:38:04.112Z,14.91
2016-06-18T03:39:04.099Z,14.93
2016-06-18T03:40:04.072Z,14.94
2016-06-18T03:41:04.044Z,14.98
2016-06-18T03:42:04.031Z,15.02
2016-06-18T03:43:04.004Z,14.95
2016-06-18T03:44:03.383Z,15.06
2016-06-18T03:45:03.964Z,15.12
2016-06-18T03:46:03.936Z,15.05
2016-06-18T03:47:03.924Z,15.03
2016-06-18T03:48:03.912Z,15.13
2016-06-18T03:49:03.931Z,15.17
2016-06-18T03:50:03.872Z,15.13
2016-06-18T03:51:03.891Z,15.15
2016-06-18T03:52:03.816Z,15.11
2016-06-18T03:53:03.805Z,15.15
2016-06-18T03:54:03.792Z,15.12
2016-06-18T03:55:03.748Z,15.17
2016-06-18T03:56:03.736Z,15.15
2016-06-18T03:57:03.708Z,15.19
2016-06-18T03:58:03.697Z,15.19
2016-06-18T03:59:03.668Z,15.17
2016-06-18T04:00:03.043Z,15.17
2016-06-18T04:01:03.628Z,15.17
2016-06-18T04:02:03.617Z,15.17
2016-06-18T04:03:03.589Z,15.13
2016-06-18T04:04:03.577Z,15.2
2016-06-18T04:05:03.549Z,15.19
2016-06-18T04:06:03.533Z,15.21
2016-06-18T04:07:03.489Z,15.21
2016-06-18T04:08:03.493Z,15.12
2016-06-18T04:09:03.466Z,15.26
2016-06-18T04:10:03.438Z,15.24
2016-06-18T04:11:02.802Z,15.28
2016-06-18T04:12:03.406Z,15.24
2016-06-18T04:13:03.385Z,15.3
2016-06-18T04:14:03.379Z,15.39
2016-06-18T04:15:03.387Z,15.24
2016-06-18T04:16:03.349Z,15.3
2016-06-18T04:17:03.324Z,15.27
2016-06-18T04:18:03.314Z,15.36
2016-06-18T04:19:03.288Z,15.35
2016-06-18T04:20:03.263Z,15.33
2016-06-18T04:21:03.252Z,15.28
2016-06-18T04:22:03.226Z,15.31
2016-06-18T04:23:03.198Z,15.36
2016-06-18T04:24:03.188Z,15.39
2016-06-18T04:25:03.175Z,15.38
2016-06-18T04:26:03.148Z,15.41
2016-06-18T04:27:03.121Z,15.33
2016-06-18T04:28:03.110Z,15.39
2016-06-18T04:29:03.098Z,15.35
2016-06-18T04:30:03.055Z,15.35
2016-06-18T04:31:03.059Z,15.35
2016-06-18T04:32:03.030Z,15.3
2016-06-18T04:33:03.002Z,15.28
2016-06-18T04:34:02.991Z,15.38
2016-06-18T04:35:02.962Z,15.27
2016-06-18T04:36:02.935Z,15.33
2016-06-18T04:37:02.908Z,15.3
2016-06-18T04:38:02.910Z,15.31
2016-06-18T04:39:02.914Z,15.24
2016-06-18T04:40:02.855Z,15.33
2016-06-18T04:41:02.233Z,15.24
2016-06-18T04:42:02.814Z,15.35
2016-06-18T04:43:02.803Z,15.42
2016-06-18T04:44:02.775Z,15.36
2016-06-18T04:45:02.763Z,15.43
2016-06-18T04:46:02.736Z,15.41
2016-06-18T04:47:02.707Z,15.49
2016-06-18T04:48:02.679Z,15.43
2016-06-18T04:49:02.668Z,15.39
2016-06-18T04:50:02.655Z,15.52
2016-06-18T04:51:02.628Z,15.56
2016-06-18T04:52:02.599Z,15.6
2016-06-18T04:53:02.588Z,15.6
2016-06-18T04:54:02.560Z,15.57
2016-06-18T04:55:02.547Z,15.54
2016-06-18T04:56:02.520Z,15.63
2016-06-18T04:57:02.491Z,15.57
2016-06-18T04:58:02.480Z,15.7
2016-06-18T04:59:02.452Z,15.67
2016-06-18T05:00:02.424Z,15.6
2016-06-18T05:01:02.427Z,15.63
2016-06-18T05:02:02.399Z,15.68
2016-06-18T05:03:02.372Z,15.75
2016-06-18T05:04:02.360Z,15.67
2016-06-18T05:05:02.332Z,15.7
2016-06-18T05:06:02.320Z,15.67
2016-06-18T05:07:02.292Z,15.78
2016-06-18T05:08:02.264Z,15.75
2016-06-18T05:09:02.268Z,15.76
2016-06-18T05:10:02.225Z,15.78
2016-06-18T05:11:02.211Z,15.78
2016-06-18T05:12:01.575Z,15.78
2016-06-18T05:13:02.172Z,15.85
2016-06-18T05:14:02.145Z,15.85
2016-06-18T05:15:02.132Z,15.88
2016-06-18T05:16:02.120Z,15.81
2016-06-18T05:17:02.076Z,15.78
2016-06-18T05:18:02.064Z,15.92
2016-06-18T05:19:02.037Z,15.86
2016-06-18T05:20:02.024Z,15.92
2016-06-18T05:21:01.996Z,15.86
2016-06-18T05:22:01.985Z,15.93
2016-06-18T05:23:01.972Z,15.94
2016-06-18T05:24:01.945Z,15.96
2016-06-18T05:25:01.918Z,15.97
2016-06-18T05:26:01.904Z,15.94
2016-06-18T05:27:01.892Z,15.94
2016-06-18T05:28:01.849Z,15.96
2016-06-18T05:29:01.837Z,15.88
2016-06-18T05:30:01.809Z,15.85
2016-06-18T05:31:01.188Z,15.92
2016-06-18T05:32:01.784Z,15.93
2016-06-18T05:33:01.757Z,16.01
2016-06-18T05:34:01.745Z,15.96
2016-06-18T05:35:01.701Z,15.96
2016-06-18T05:36:01.705Z,16.03
2016-06-18T05:37:01.677Z,16.06
2016-06-18T05:38:01.649Z,16.06
2016-06-18T05:39:01.636Z,16.15
2016-06-18T05:40:01.609Z,16.14
2016-06-18T05:41:01.582Z,16.12
2016-06-18T05:42:01.569Z,16.07
2016-06-18T05:43:01.573Z,16.16
2016-06-18T05:44:01.529Z,16.11
2016-06-18T05:45:01.501Z,16.03
2016-06-18T05:46:01.490Z,15.99
2016-06-18T05:47:01.477Z,16.01
2016-06-18T05:48:01.450Z,16.03
2016-06-18T05:49:01.421Z,16.14
2016-06-18T05:50:01.410Z,16.12
2016-06-18T05:51:01.397Z,15.99
2016-06-18T05:52:01.370Z,16.15
2016-06-18T05:53:01.357Z,16.01
2016-06-18T05:54:01.329Z,16.07
2016-06-18T05:55:01.317Z,16.18
2016-06-18T05:56:01.289Z,16.14
2016-06-18T05:57:01.262Z,16.12
2016-06-18T05:58:01.235Z,16.11
2016-06-18T05:59:01.222Z,16.2
2016-06-18T06:00:01.225Z,16.04
2016-06-18T06:01:01.182Z,16.11
2016-06-18T06:02:01.170Z,16.11
2016-06-18T06:03:01.142Z,16.18
2016-06-18T06:04:01.130Z,16.12
2016-06-18T06:05:01.101Z,16.07
2016-06-18T06:06:01.074Z,16.09
2016-06-18T06:07:01.063Z,16.18
2016-06-18T06:08:01.050Z,16.11
2016-06-18T06:09:01.022Z,16.14
2016-06-18T06:10:01.026Z,16.11
2016-06-18T06:11:00.982Z,16.07
2016-06-18T06:12:00.955Z,16.14
2016-06-18T06:13:00.942Z,16.12
2016-06-18T06:14:00.304Z,16.12
2016-06-18T06:15:00.902Z,16.16
2016-06-18T06:16:00.889Z,16.12
2016-06-18T06:17:00.862Z,16.22
2016-06-18T06:18:00.835Z,16.11
2016-06-18T06:19:00.822Z,16.27
2016-06-18T06:20:00.794Z,16.12
2016-06-18T06:21:00.782Z,16.25
2016-06-18T06:22:00.770Z,16.25
2016-06-18T06:23:00.742Z,16.34
2016-06-18T06:24:00.730Z,16.25
2016-06-18T06:25:00.702Z,16.27
2016-06-18T06:26:00.675Z,16.4
2016-06-18T06:27:00.663Z,16.42
2016-06-18T06:28:00.636Z,16.53
2016-06-18T06:29:00.609Z,16.55
2016-06-18T06:30:00.597Z,16.53
2016-06-18T06:31:00.586Z,16.6
2016-06-18T06:32:00.559Z,16.53
2016-06-18T06:33:00.547Z,16.71
2016-06-18T06:34:00.520Z,16.7
2016-06-18T06:35:00.507Z,16.63
2016-06-18T06:36:00.496Z,16.68
2016-06-18T06:37:00.468Z,16.74
2016-06-18T06:38:00.456Z,16.8
2016-06-18T06:39:00.428Z,16.89
2016-06-18T06:40:00.416Z,16.77
2016-06-18T06:41:00.389Z,16.92
2016-06-18T06:42:00.377Z,16.89
2016-06-18T06:43:00.348Z,17.04
2016-06-18T06:44:00.321Z,17.04
2016-06-18T06:45:00.308Z,17.03
2016-06-18T06:46:00.296Z,17.07
2016-06-18T06:47:00.269Z,17.11
2016-06-18T06:48:00.272Z,17.14
2016-06-18T06:49:00.228Z,17.25
2016-06-18T06:50:00.217Z,17.18
2016-06-18T06:51:00.189Z,17.28
2016-06-18T06:52:00.192Z,17.29
2016-06-18T06:53:00.149Z,17.33
2016-06-18T06:54:00.136Z,17.48
2016-06-18T06:55:00.124Z,17.63
2016-06-18T06:56:00.097Z,17.7
2016-06-18T06:57:00.069Z,17.82
2016-06-18T06:58:00.057Z,17.87
2016-06-18T06:58:59.451Z,17.85
2016-06-18T07:00:00.016Z,17.87
2016-06-18T07:01:00.005Z,17.94
2016-06-18T07:01:59.977Z,18.1
2016-06-18T07:02:59.949Z,18.1
2016-06-18T07:03:59.953Z,18.25
2016-06-18T07:04:59.924Z,18.1
2016-06-18T07:05:59.897Z,18.22
2016-06-18T07:06:59.885Z,18.15
2016-06-18T07:07:59.872Z,18.29
2016-06-18T07:08:59.861Z,18.33
2016-06-18T07:09:59.832Z,18.57
2016-06-18T07:10:59.195Z,18.76
2016-06-18T07:11:59.793Z,18.83
2016-06-18T07:12:59.797Z,18.91
2016-06-18T07:13:59.768Z,18.98
2016-06-18T07:14:59.757Z,19.17
2016-06-18T07:15:59.727Z,19.46
2016-06-18T07:16:59.700Z,20.12
2016-06-18T07:17:59.688Z,21.02
2016-06-18T07:18:59.676Z,21.71
2016-06-18T07:19:59.649Z,21.79
2016-06-18T07:20:59.621Z,21.85
2016-06-18T07:21:59.623Z,21.81
2016-06-18T07:22:59.627Z,22.16
2016-06-18T07:23:59.584Z,22.32
2016-06-18T07:24:59.619Z,22.46
2016-06-18T07:25:59.559Z,22.32
2016-06-18T07:26:59.548Z,22.19
2016-06-18T07:27:59.520Z,22.09
2016-06-18T07:28:59.522Z,22.04
2016-06-18T07:29:59.495Z,21.94
2016-06-18T07:30:59.483Z,22.12
2016-06-18T07:31:59.471Z,22.71
2016-06-18T07:32:59.444Z,23.08
2016-06-18T07:33:59.447Z,23.42
2016-06-18T07:34:59.419Z,23.77
2016-06-18T07:35:59.422Z,23.8
2016-06-18T07:36:58.801Z,23.68
2016-06-18T07:37:59.383Z,23.47
2016-06-18T07:38:59.354Z,23.15
2016-06-18T07:39:59.358Z,22.53
2016-06-18T07:40:59.346Z,22.43
2016-06-18T07:41:59.334Z,22.1
2016-06-18T07:42:59.306Z,21.82
2016-06-18T07:43:59.309Z,21.74
2016-06-18T07:44:59.282Z,21.81
2016-06-18T07:45:59.269Z,21.88
2016-06-18T07:46:59.257Z,21.81
2016-06-18T07:47:59.261Z,21.45
2016-06-18T07:48:59.233Z,21.27
2016-06-18T07:49:59.205Z,20.89
2016-06-18T07:50:59.193Z,20.8
2016-06-18T07:51:59.197Z,20.56
2016-06-18T07:52:59.168Z,20.39
2016-06-18T07:53:59.156Z,20.49
2016-06-18T07:54:58.534Z,20.49
2016-06-18T07:55:59.132Z,20.33
2016-06-18T07:56:59.088Z,19.91
2016-06-18T07:57:59.092Z,19.87
2016-06-18T07:58:59.081Z,19.86
2016-06-18T07:59:59.052Z,19.72
2016-06-18T08:00:59.040Z,19.65
2016-06-18T08:01:59.028Z,19.6
2016-06-18T08:02:59.000Z,19.46
2016-06-18T08:03:58.988Z,19.39
2016-06-18T08:04:58.960Z,19.43
2016-06-18T08:05:58.964Z,19.46
2016-06-18T08:06:58.920Z,19.35
2016-06-18T08:07:58.907Z,19.33
2016-06-18T08:08:58.302Z,19.43
2016-06-18T08:09:58.883Z,19.43
2016-06-18T08:10:58.872Z,19.38
2016-06-18T08:11:58.843Z,19.42
2016-06-18T08:12:58.863Z,19.33
2016-06-18T08:13:58.211Z,19.4
2016-06-18T08:14:58.791Z,19.38
2016-06-18T08:15:58.780Z,19.43
2016-06-18T08:16:58.767Z,19.54
2016-06-18T08:17:58.739Z,19.66
2016-06-18T08:18:57.539Z,19.8
2016-06-18T08:19:58.716Z,19.94
2016-06-18T08:20:58.688Z,20.13
2016-06-18T08:21:58.675Z,20.2
2016-06-18T08:22:58.647Z,20.34
2016-06-18T08:23:58.667Z,20.43
2016-06-18T08:24:58.623Z,20.51
2016-06-18T08:25:57.408Z,20.62
2016-06-18T08:26:58.599Z,20.77
2016-06-18T08:27:58.587Z,20.74
2016-06-18T08:28:58.559Z,20.74
2016-06-18T08:29:57.937Z,20.62
2016-06-18T08:30:58.519Z,20.61
2016-06-18T08:31:58.507Z,20.66
2016-06-18T08:32:58.510Z,20.83
2016-06-18T08:33:58.483Z,20.89
2016-06-18T08:34:58.455Z,21.16
2016-06-18T08:35:58.458Z,21.3
2016-06-18T08:36:58.430Z,21.54
2016-06-18T08:37:58.418Z,21.72
2016-06-18T08:38:58.390Z,21.71
2016-06-18T08:39:58.378Z,21.82
2016-06-18T08:40:58.351Z,21.81
2016-06-18T08:41:58.338Z,21.81
2016-06-18T08:42:58.325Z,21.71
2016-06-18T08:43:58.347Z,21.63
2016-06-18T08:47:10.250Z,21.67
2016-06-18T08:47:22.078Z,21.71
2016-06-18T08:47:33.297Z,21.78
2016-06-18T08:48:33.288Z,21.76
2016-06-18T08:49:33.294Z,21.79
2016-06-18T08:50:33.268Z,21.85
2016-06-18T08:51:33.242Z,22.1
2016-06-18T08:52:33.247Z,22.31
2016-06-18T08:53:33.220Z,22.54
2016-06-18T08:54:33.223Z,22.56
2016-06-18T08:55:33.197Z,22.52
2016-06-18T08:56:33.185Z,22.49
2016-06-18T08:57:33.189Z,22.52
2016-06-18T08:58:33.161Z,22.5
2016-06-18T08:59:33.150Z,22.67
2016-06-18T09:00:33.121Z,22.54
2016-06-18T09:01:33.111Z,22.83
2016-06-18T09:02:33.099Z,22.84
2016-06-18T09:03:33.101Z,22.6
2016-06-18T09:04:33.074Z,22.53
2016-06-18T09:05:33.062Z,22.52
2016-06-18T09:06:33.050Z,22.57
2016-06-18T09:07:33.021Z,22.53
2016-06-18T09:08:33.010Z,22.54
2016-06-18T09:09:32.998Z,22.53
2016-06-18T09:10:32.376Z,22.29
2016-06-18T09:11:32.989Z,22.22
2016-06-18T09:12:32.961Z,22.25
2016-06-18T09:13:32.950Z,22.27
2016-06-18T09:14:32.906Z,22.22
2016-06-18T09:15:32.909Z,22.19
2016-06-18T09:16:32.882Z,22.22
2016-06-18T09:17:32.870Z,22.17
2016-06-18T09:20:54.144Z,22.01
2016-06-18T09:21:54.116Z,21.82
2016-06-18T09:22:54.088Z,21.78
2016-06-18T09:23:54.107Z,21.74
2016-06-18T09:24:54.127Z,21.53
2016-06-18T09:25:54.036Z,21.36
2016-06-18T09:26:54.039Z,21.35
2016-06-18T09:27:54.027Z,21.32
2016-06-18T09:28:54.000Z,21.26
2016-06-18T09:29:53.988Z,21.24
2016-06-18T09:30:53.975Z,21.17
2016-06-18T09:31:53.932Z,21.16
2016-06-18T09:32:53.874Z,21.02
2016-06-18T09:33:53.877Z,21.08
2016-06-18T09:34:53.864Z,20.98
2016-06-18T09:35:53.274Z,20.95
2016-06-18T09:36:53.824Z,20.95
2016-06-18T09:37:53.812Z,20.76
2016-06-18T09:38:53.800Z,20.76
2016-06-18T09:39:53.773Z,20.66
2016-06-18T09:40:53.791Z,20.51
2016-06-18T09:41:53.139Z,20.64
2016-06-18T09:42:53.126Z,20.64
2016-06-18T09:43:53.709Z,20.64
2016-06-18T09:44:53.695Z,20.66
2016-06-18T09:45:53.793Z,20.81
2016-06-18T09:46:52.453Z,20.86
2016-06-18T09:47:53.643Z,21.01
2016-06-18T09:48:53.615Z,20.95
2016-06-18T09:49:53.604Z,21.02
2016-06-18T09:50:53.716Z,20.96
2016-06-18T09:51:53.579Z,20.87
2016-06-18T09:52:52.958Z,20.81
2016-06-18T09:53:53.586Z,20.83
2016-06-18T09:54:53.527Z,20.77
2016-06-18T09:55:52.921Z,20.64
2016-06-18T09:56:53.503Z,20.77
2016-06-18T09:57:53.491Z,20.77
2016-06-18T09:58:53.494Z,20.8
2016-06-18T09:59:53.450Z,20.99
2016-06-18T10:00:53.423Z,20.87
2016-06-18T10:01:53.785Z,20.86
2016-06-18T10:02:53.399Z,20.86
2016-06-18T10:03:53.386Z,20.65
2016-06-18T10:04:53.374Z,20.76
2016-06-18T10:05:53.346Z,20.65
2016-06-18T10:06:53.334Z,20.68
2016-06-18T10:07:53.322Z,20.66
2016-06-18T10:08:52.701Z,20.58
2016-06-18T10:09:53.299Z,20.43
2016-06-18T10:10:53.270Z,20.15
2016-06-18T10:11:53.258Z,19.79
2016-06-18T10:12:53.262Z,19.84
2016-06-18T10:13:53.218Z,19.73
2016-06-18T10:14:53.205Z,19.5
2016-06-18T10:15:52.583Z,19.21
2016-06-18T10:16:53.181Z,18.95
2016-06-18T10:17:53.154Z,18.95
2016-06-18T10:18:53.125Z,18.73
2016-06-18T10:19:53.114Z,18.62
2016-06-18T10:20:53.102Z,18.42
2016-06-18T10:21:53.090Z,18.21
2016-06-18T10:22:53.061Z,17.99
2016-06-18T10:23:52.440Z,18.02
2016-06-18T10:25:53.009Z,17.89
2016-06-18T10:26:52.996Z,17.94
2016-06-18T10:27:52.985Z,17.73
2016-06-18T10:28:52.988Z,17.69
2016-06-18T10:29:52.336Z,17.79
2016-06-18T10:30:52.917Z,17.79
2016-06-18T10:31:52.905Z,17.82
2016-06-18T10:32:52.892Z,17.74
2016-06-18T10:33:52.865Z,17.63
2016-06-18T10:34:52.837Z,17.55
2016-06-18T10:35:52.216Z,17.67
2016-06-18T10:36:52.813Z,17.73
2016-06-18T10:37:52.784Z,17.74
2016-06-18T10:38:52.773Z,17.82
2016-06-18T10:39:52.152Z,17.78
2016-06-18T10:40:52.124Z,17.78
2016-06-18T10:41:52.095Z,17.64
2016-06-18T10:42:52.693Z,17.64
2016-06-18T10:43:52.665Z,17.53
2016-06-18T10:44:52.683Z,17.62
2016-06-18T10:45:52.626Z,17.62
2016-06-18T10:46:52.629Z,17.62
2016-06-18T10:47:52.601Z,17.64
2016-06-18T10:48:52.572Z,17.64
2016-06-18T10:49:52.576Z,17.7
2016-06-18T10:50:52.534Z,17.7
2016-06-18T10:51:52.521Z,17.82
2016-06-18T10:52:52.509Z,17.87
2016-06-18T10:53:52.528Z,17.88
2016-06-18T10:54:51.860Z,17.82
2016-06-18T10:55:52.441Z,17.89
2016-06-18T10:56:52.429Z,17.91
2016-06-18T10:57:52.433Z,17.91
2016-06-18T10:58:52.404Z,17.92
2016-06-18T10:59:52.377Z,17.89
2016-06-18T11:00:52.350Z,17.97
2016-06-18T11:01:52.337Z,18.12
2016-06-18T11:02:52.325Z,18.15
2016-06-18T11:03:52.297Z,18.1
2016-06-18T11:04:52.285Z,18.22
2016-06-18T11:05:52.273Z,18.34
2016-06-18T11:06:52.245Z,18.4
2016-06-18T11:07:52.218Z,18.54
2016-06-18T11:08:52.205Z,18.58
2016-06-18T11:09:52.193Z,18.59
2016-06-18T11:10:51.571Z,18.58
2016-06-18T11:11:52.152Z,18.72
2016-06-18T11:12:51.531Z,18.79
2016-06-18T11:13:52.113Z,18.72
2016-06-18T11:14:52.100Z,18.74
2016-06-18T11:15:51.495Z,18.8
2016-06-18T11:16:52.060Z,19.2
2016-06-18T11:17:52.048Z,19.54
2016-06-18T11:18:52.021Z,19.75
2016-06-18T11:19:52.009Z,19.91
2016-06-18T11:20:51.996Z,20.15
2016-06-18T11:21:51.969Z,20.25
2016-06-18T11:22:51.348Z,20.33
2016-06-18T11:23:51.943Z,20.33
2016-06-18T11:24:52.059Z,20.5
2016-06-18T11:25:51.906Z,20.33
2016-06-18T11:26:52.597Z,20.31
2016-06-18T11:27:51.865Z,20.3
2016-06-18T11:28:51.854Z,20.25
2016-06-18T11:29:51.841Z,20.28
2016-06-18T11:30:51.814Z,20.33
2016-06-18T11:31:51.818Z,20.31
2016-06-18T11:32:51.790Z,20.41
2016-06-18T11:33:51.761Z,20.49
2016-06-18T11:40:53.542Z,20.49
2016-06-18T11:41:53.529Z,20.47
2016-06-18T11:42:53.518Z,20.46
2016-06-18T11:43:53.506Z,20.43
2016-06-18T11:44:53.478Z,20.62
2016-06-18T11:45:53.465Z,20.68
2016-06-18T11:46:53.454Z,20.72
2016-06-18T11:47:53.425Z,20.74
2016-06-18T11:48:53.414Z,20.74
2016-06-18T11:49:53.401Z,20.76
2016-06-18T11:50:53.374Z,20.66
2016-06-18T11:51:53.362Z,20.65
2016-06-18T11:52:53.349Z,20.62
2016-06-18T11:53:53.338Z,20.69
2016-06-18T11:54:53.310Z,20.65
2016-06-18T11:55:53.298Z,20.66
2016-06-18T11:56:53.270Z,20.66
2016-06-18T11:57:53.258Z,20.66
2016-06-18T11:58:53.247Z,20.76
2016-06-18T11:59:52.642Z,20.71
2016-06-18T12:00:53.210Z,20.83
2016-06-18T12:01:53.198Z,20.77
2016-06-18T12:02:53.186Z,20.79
2016-06-18T12:03:53.160Z,20.87
2016-06-18T12:04:53.179Z,20.66
2016-06-18T12:05:53.136Z,20.81
2016-06-18T12:06:53.109Z,20.66
2016-06-18T12:07:53.097Z,20.64
2016-06-18T12:08:53.084Z,20.77
2016-06-18T12:09:53.104Z,20.71
2016-06-18T12:10:53.060Z,20.76
2016-06-18T12:11:53.033Z,20.79
2016-06-18T12:12:52.426Z,20.8
2016-06-18T12:13:52.992Z,20.84
2016-06-18T12:14:52.980Z,20.89
2016-06-18T12:15:52.969Z,20.91
2016-06-18T12:16:52.956Z,20.96
2016-06-18T12:17:52.945Z,20.98
2016-06-18T12:18:52.511Z,20.89
2016-06-18T12:19:52.906Z,21.01
2016-06-18T12:20:52.894Z,20.96
2016-06-18T12:21:52.866Z,21.13
2016-06-18T12:22:52.853Z,21.3
2016-06-18T12:23:52.841Z,21.3
2016-06-18T12:24:52.830Z,21.32
2016-06-18T12:25:52.817Z,21.57
2016-06-18T12:26:52.805Z,21.64
2016-06-18T12:27:52.777Z,21.6
2016-06-18T12:28:52.781Z,21.78
2016-06-18T12:29:52.737Z,21.97
2016-06-18T12:30:52.740Z,22.07
2016-06-18T12:31:52.728Z,22.07
2016-06-18T12:32:52.716Z,22.32
2016-06-18T12:33:52.688Z,22.22
2016-06-18T12:34:52.676Z,21.94
2016-06-18T12:35:52.665Z,22.02
2016-06-18T12:36:52.636Z,22.06
2016-06-18T12:37:52.625Z,21.97
2016-06-18T12:38:52.612Z,22.06
2016-06-18T12:39:52.601Z,22.07
2016-06-18T12:40:52.588Z,22.12
2016-06-18T12:41:52.732Z,22.23
2016-06-18T12:42:52.548Z,22.2
2016-06-18T12:43:52.532Z,22.22
2016-06-18T12:44:51.911Z,22.27
2016-06-18T12:45:52.493Z,22.19
2016-06-18T12:46:52.527Z,22.17
2016-06-18T12:47:52.468Z,22.22
2016-06-18T12:48:51.846Z,22.16
2016-06-18T12:49:52.444Z,22.14
2016-06-18T12:50:52.416Z,22.19
2016-06-18T12:51:52.420Z,22.14
2016-06-18T12:52:52.393Z,22.17
2016-06-18T12:53:52.381Z,22.29
2016-06-18T12:54:52.978Z,22.25
2016-06-18T12:55:52.341Z,22.29
2016-06-18T12:56:52.329Z,22.16
2016-06-18T12:57:52.318Z,22.25
2016-06-18T12:58:52.290Z,21.94
2016-06-18T12:59:52.293Z,21.99
2016-06-18T13:00:52.265Z,22.19
2016-06-18T13:01:52.253Z,22.41
2016-06-18T13:02:52.225Z,22.41
2016-06-18T13:03:52.213Z,22.5